Time;durP1;ratioP1;P1;durP2;ratioP2;P2;SDS_P1;SDS_P2;PMS_P1;PMS_P2;Temp;Humidity;BMP_temperature;BMP_pressure;BME280_temperature;BME280_humidity;BME280_pressure;Samples;Min_cycle;Max_cycle;Signal;HPM_P1;HPM_P2
2024/01/04 00:02:36;;;;;;;1.40;0.60;;;;;;;;;;6144383;23;20497;-92
2024/01/04 00:05:42;;;;;;;3.17;0.70;;;;;;;;;;6143716;23;20178;-92
2024/01/04 00:08:47;;;;;;;0.90;0.70;;;;;;;;;;6142943;23;20169;-93
2024/01/04 00:11:52;;;;;;;3.38;0.80;;;;;;;;;;6144777;23;20158;-93
2024/01/04 00:14:59;;;;;;;1.98;0.70;;;;;;;;;;6145681;23;20185;-94
2024/01/04 00:18:06;;;;;;;2.55;0.85;;;;;;;;;;6144817;23;20157;-92
2024/01/04 00:21:13;;;;;;;3.58;0.80;;;;;;;;;;6145281;23;20153;-93
2024/01/04 00:24:19;;;;;;;3.50;0.77;;;;;;;;;;6143037;23;20169;-93
2024/01/04 00:27:25;;;;;;;2.60;0.98;;;;;;;;;;6144912;23;20173;-95
2024/01/04 00:30:30;;;;;;;5.32;1.50;;;;;;;;;;6143122;23;20178;-92
2024/01/04 00:33:38;;;;;;;1.50;0.55;;;;;;;;;;6142213;23;20178;-91
2024/01/04 00:36:43;;;;;;;3.20;0.95;;;;;;;;;;6142443;23;20180;-92
2024/01/04 00:39:49;;;;;;;3.03;0.70;;;;;;;;;;6144940;23;20173;-92
2024/01/04 00:42:54;;;;;;;4.10;0.77;;;;;;;;;;6143968;23;20169;-93
2024/01/04 00:46:00;;;;;;;2.90;0.93;;;;;;;;;;6143910;23;20179;-92
2024/01/04 00:49:07;;;;;;;1.48;0.65;;;;;;;;;;6142956;23;20190;-91
2024/01/04 00:52:12;;;;;;;2.97;0.80;;;;;;;;;;6142466;23;20154;-94
2024/01/04 00:55:17;;;;;;;1.55;0.70;;;;;;;;;;6142979;23;20180;-92
2024/01/04 00:58:22;;;;;;;5.03;0.77;;;;;;;;;;6138770;23;20268;-91
2024/01/04 01:01:28;;;;;;;2.38;0.80;;;;;;;;;;6138300;23;20161;-94
2024/01/04 01:04:36;;;;;;;4.82;1.25;;;;;;;;;;6136065;23;20165;-92
2024/01/04 01:07:42;;;;;;;1.65;0.65;;;;;;;;;;6137001;23;20176;-92
2024/01/04 01:10:47;;;;;;;0.38;0.38;;;;;;;;;;6141189;23;20182;-95
2024/01/04 01:13:52;;;;;;;3.40;0.60;;;;;;;;;;6140018;23;20213;-94
2024/01/04 01:16:58;;;;;;;3.05;0.82;;;;;;;;;;6142162;23;20237;-93
2024/01/04 01:20:04;;;;;;;1.95;0.68;;;;;;;;;;6139067;23;20164;-92
2024/01/04 01:23:10;;;;;;;3.38;1.10;;;;;;;;;;6147076;23;20205;-92
2024/01/04 01:26:15;;;;;;;1.90;0.60;;;;;;;;;;6146502;23;20229;-91
2024/01/04 01:29:22;;;;;;;1.08;0.68;;;;;;;;;;6145248;23;20169;-92
2024/01/04 01:32:28;;;;;;;2.85;0.93;;;;;;;;;;6144654;23;20157;-92
2024/01/04 01:35:35;;;;;;;2.85;0.88;;;;;;;;;;6143598;23;20241;-92
2024/01/04 01:38:40;;;;;;;2.58;0.60;;;;;;;;;;6141163;23;20173;-90
2024/01/04 01:41:46;;;;;;;2.78;0.65;;;;;;;;;;6141529;23;20181;-91
2024/01/04 01:44:51;;;;;;;1.75;0.90;;;;;;;;;;6142423;23;20193;-92
2024/01/04 01:47:57;;;;;;;1.80;0.60;;;;;;;;;;6139861;23;20165;-91
2024/01/04 01:51:03;;;;;;;3.00;1.00;;;;;;;;;;6142094;23;20152;-93
2024/01/04 01:54:09;;;;;;;1.65;0.68;;;;;;;;;;6141961;23;20515;-92
2024/01/04 01:57:14;;;;;;;1.83;0.60;;;;;;;;;;6141983;23;20201;-93
2024/01/04 02:00:20;;;;;;;2.72;1.10;;;;;;;;;;6140434;23;20468;-91
2024/01/04 02:03:25;;;;;;;3.58;0.73;;;;;;;;;;6140952;23;20153;-95
2024/01/04 02:06:32;;;;;;;3.85;1.00;;;;;;;;;;6141986;23;20169;-92
2024/01/04 02:09:37;;;;;;;2.58;0.77;;;;;;;;;;6140347;23;20166;-92
2024/01/04 02:12:42;;;;;;;3.08;0.98;;;;;;;;;;6139347;23;20196;-92
2024/01/04 02:15:48;;;;;;;2.97;0.80;;;;;;;;;;6139470;23;20177;-93
2024/01/04 02:18:53;;;;;;;3.25;0.68;;;;;;;;;;6139892;23;20165;-94
2024/01/04 02:21:59;;;;;;;2.20;0.68;;;;;;;;;;6138761;23;20621;-92
2024/01/04 02:25:07;;;;;;;6.20;0.73;;;;;;;;;;6140440;23;20173;-93
2024/01/04 02:28:12;;;;;;;1.77;0.73;;;;;;;;;;6137716;23;20173;-91
2024/01/04 02:31:18;;;;;;;3.15;0.70;;;;;;;;;;6141631;23;20214;-94
2024/01/04 02:34:23;;;;;;;1.05;0.60;;;;;;;;;;6141563;23;20153;-91
2024/01/04 02:37:28;;;;;;;4.38;0.77;;;;;;;;;;6139544;23;20315;-92
2024/01/04 02:40:36;;;;;;;4.95;0.77;;;;;;;;;;6142319;23;20177;-93
2024/01/04 02:43:41;;;;;;;2.38;0.75;;;;;;;;;;6142041;23;20214;-93
2024/01/04 02:46:48;;;;;;;2.97;0.50;;;;;;;;;;6141731;23;20240;-91
2024/01/04 02:49:53;;;;;;;1.50;0.70;;;;;;;;;;6140366;23;20223;-93
2024/01/04 02:52:58;;;;;;;1.25;0.77;;;;;;;;;;6141452;23;20213;-94
2024/01/04 02:56:05;;;;;;;7.05;1.10;;;;;;;;;;6141789;23;20172;-91
2024/01/04 02:59:10;;;;;;;1.55;0.65;;;;;;;;;;6142516;23;20164;-92
2024/01/04 03:02:16;;;;;;;4.32;1.20;;;;;;;;;;6141985;23;20169;-93
2024/01/04 03:05:22;;;;;;;4.07;0.77;;;;;;;;;;6142704;23;20166;-92
2024/01/04 03:08:27;;;;;;;3.08;0.80;;;;;;;;;;6143757;23;20177;-93
2024/01/04 03:11:34;;;;;;;1.20;0.68;;;;;;;;;;6141067;23;20222;-93
2024/01/04 03:14:39;;;;;;;3.25;0.75;;;;;;;;;;6141194;23;20169;-93
2024/01/04 03:17:45;;;;;;;1.63;0.70;;;;;;;;;;6141247;23;20196;-92
2024/01/04 03:20:50;;;;;;;1.55;0.70;;;;;;;;;;6141893;23;20169;-93
2024/01/04 03:23:56;;;;;;;1.67;0.55;;;;;;;;;;6143260;23;20189;-93
2024/01/04 03:27:03;;;;;;;2.90;0.60;;;;;;;;;;6143571;23;20161;-92
2024/01/04 03:30:10;;;;;;;3.10;0.70;;;;;;;;;;6145470;23;20165;-93
2024/01/04 03:33:15;;;;;;;3.30;0.60;;;;;;;;;;6144144;23;20157;-93
2024/01/04 03:36:21;;;;;;;2.05;0.68;;;;;;;;;;6143946;23;20256;-92
2024/01/04 03:39:26;;;;;;;0.98;0.50;;;;;;;;;;6144700;23;20169;-93
2024/01/04 03:42:33;;;;;;;1.15;0.70;;;;;;;;;;6143334;23;20169;-92
2024/01/04 03:45:38;;;;;;;3.33;0.60;;;;;;;;;;6143637;23;20158;-90
2024/01/04 03:48:43;;;;;;;2.45;0.80;;;;;;;;;;6146568;23;20222;-93
2024/01/04 03:51:50;;;;;;;4.15;0.88;;;;;;;;;;6148168;23;20189;-93
2024/01/04 03:54:55;;;;;;;3.15;0.60;;;;;;;;;;6147424;23;20177;-94
2024/01/04 03:58:02;;;;;;;5.15;0.98;;;;;;;;;;6146134;23;20196;-93
2024/01/04 04:01:08;;;;;;;1.45;0.60;;;;;;;;;;6145474;23;20161;-92
2024/01/04 04:04:14;;;;;;;2.17;0.73;;;;;;;;;;6144600;23;20169;-93
2024/01/04 04:07:21;;;;;;;4.10;0.80;;;;;;;;;;6146327;23;20173;-94
2024/01/04 04:10:26;;;;;;;2.08;0.95;;;;;;;;;;6146131;23;20153;-93
2024/01/04 04:13:34;;;;;;;3.08;1.38;;;;;;;;;;6145208;23;20194;-92
2024/01/04 04:16:42;;;;;;;1.00;0.50;;;;;;;;;;6144658;23;20292;-93
2024/01/04 04:19:47;;;;;;;1.63;0.80;;;;;;;;;;6144475;23;20169;-91
2024/01/04 04:22:55;;;;;;;2.97;0.77;;;;;;;;;;6146051;23;20168;-92
2024/01/04 04:26:00;;;;;;;3.03;0.68;;;;;;;;;;6144351;23;20156;-92
2024/01/04 04:29:07;;;;;;;1.58;0.65;;;;;;;;;;6144503;23;20219;-93
2024/01/04 04:32:17;;;;;;;0.98;0.50;;;;;;;;;;6144518;23;20213;-92
2024/01/04 04:35:22;;;;;;;4.30;0.60;;;;;;;;;;6143145;23;20225;-92
2024/01/04 04:38:32;;;;;;;1.52;0.68;;;;;;;;;;6142352;23;20173;-91
2024/01/04 04:41:37;;;;;;;2.15;0.70;;;;;;;;;;6141953;23;20172;-95
2024/01/04 04:44:44;;;;;;;3.88;0.80;;;;;;;;;;6143039;23;20209;-92
2024/01/04 04:47:49;;;;;;;3.20;0.68;;;;;;;;;;6141575;23;20173;-92
2024/01/04 04:50:55;;;;;;;3.20;0.70;;;;;;;;;;6141945;23;20161;-94
2024/01/04 04:54:00;;;;;;;1.30;0.75;;;;;;;;;;6143844;23;20176;-92
2024/01/04 04:57:06;;;;;;;1.92;0.70;;;;;;;;;;6141637;23;20277;-95
2024/01/04 05:00:13;;;;;;;5.68;0.70;;;;;;;;;;6142288;23;20173;-92
2024/01/04 05:03:19;;;;;;;3.20;0.50;;;;;;;;;;6142155;23;20153;-94
2024/01/04 05:06:24;;;;;;;3.60;0.70;;;;;;;;;;6143076;23;20153;-94
2024/01/04 05:09:29;;;;;;;1.90;0.70;;;;;;;;;;6143345;23;20157;-96
2024/01/04 05:12:35;;;;;;;4.45;0.60;;;;;;;;;;6144905;23;20173;-94
2024/01/04 05:15:46;;;;;;;3.38;0.70;;;;;;;;;;6145674;23;20191;-93
2024/01/04 05:18:50;;;;;;;1.33;0.70;;;;;;;;;;6146501;23;20225;-92
2024/01/04 05:21:56;;;;;;;1.63;0.60;;;;;;;;;;6144922;23;20172;-93
2024/01/04 05:25:01;;;;;;;1.77;0.70;;;;;;;;;;6144447;23;20178;-92
2024/01/04 05:28:07;;;;;;;1.23;0.60;;;;;;;;;;6145848;23;20189;-95
2024/01/04 05:31:18;;;;;;;1.38;0.70;;;;;;;;;;6146636;23;20597;-93
2024/01/04 05:34:24;;;;;;;1.85;0.50;;;;;;;;;;6146988;23;20173;-93
2024/01/04 05:37:30;;;;;;;1.17;0.55;;;;;;;;;;6145708;23;20221;-91
2024/01/04 05:40:39;;;;;;;0.85;0.47;;;;;;;;;;6145672;23;20173;-92
2024/01/04 05:43:45;;;;;;;0.77;0.40;;;;;;;;;;6149266;23;20149;-93
2024/01/04 05:46:53;;;;;;;1.55;0.50;;;;;;;;;;6146462;23;20178;-93
2024/01/04 05:50:01;;;;;;;1.10;0.77;;;;;;;;;;6144521;23;20168;-93
2024/01/04 05:53:07;;;;;;;3.10;0.88;;;;;;;;;;6144421;23;20180;-92
2024/01/04 05:56:13;;;;;;;1.25;0.50;;;;;;;;;;6161654;23;20170;-93
2024/01/04 05:59:18;;;;;;;1.23;0.60;;;;;;;;;;6145854;23;20173;-93
2024/01/04 06:02:27;;;;;;;1.67;0.57;;;;;;;;;;6139819;23;20223;-93
2024/01/04 06:05:35;;;;;;;0.50;0.50;;;;;;;;;;6139003;23;20253;-91
2024/01/04 06:08:41;;;;;;;1.33;0.50;;;;;;;;;;6137441;23;20218;-93
2024/01/04 06:11:46;;;;;;;2.08;0.50;;;;;;;;;;6139175;23;20156;-93
2024/01/04 06:14:52;;;;;;;0.85;0.50;;;;;;;;;;6138842;23;20173;-91
2024/01/04 06:17:59;;;;;;;0.93;0.50;;;;;;;;;;6139798;23;20204;-92
2024/01/04 06:21:05;;;;;;;1.33;0.55;;;;;;;;;;6139507;23;20152;-93
2024/01/04 06:24:11;;;;;;;1.20;0.40;;;;;;;;;;6141872;23;20620;-92
2024/01/04 06:27:16;;;;;;;0.63;0.43;;;;;;;;;;6142201;23;20161;-94
2024/01/04 06:30:25;;;;;;;3.88;0.52;;;;;;;;;;6144369;23;20165;-92
2024/01/04 06:33:34;;;;;;;2.60;0.60;;;;;;;;;;6145198;23;20165;-92
2024/01/04 06:36:42;;;;;;;0.30;0.30;;;;;;;;;;6144195;23;20248;-92
2024/01/04 06:39:50;;;;;;;0.30;0.30;;;;;;;;;;6126009;23;20165;-92
2024/01/04 06:42:56;;;;;;;0.60;0.60;;;;;;;;;;6143550;23;20149;-91
2024/01/04 06:46:01;;;;;;;0.30;0.30;;;;;;;;;;6143684;23;20173;-91
2024/01/04 06:49:10;;;;;;;0.60;0.60;;;;;;;;;;6143879;23;20149;-92
2024/01/04 06:52:15;;;;;;;0.30;0.30;;;;;;;;;;6142284;23;20241;-93
2024/01/04 06:55:21;;;;;;;0.30;0.30;;;;;;;;;;6142932;23;20153;-95
2024/01/04 06:58:26;;;;;;;0.38;0.38;;;;;;;;;;6141168;23;20256;-90
2024/01/04 07:01:31;;;;;;;0.35;0.35;;;;;;;;;;6141171;23;20153;-93
2024/01/04 07:04:38;;;;;;;0.30;0.30;;;;;;;;;;6142421;23;20165;-93
2024/01/04 07:07:43;;;;;;;0.40;0.40;;;;;;;;;;6142763;23;20169;-94
2024/01/04 07:10:49;;;;;;;1.10;0.60;;;;;;;;;;6143911;23;20625;-92
2024/01/04 07:13:59;;;;;;;0.30;0.30;;;;;;;;;;6143395;23;20277;-93
2024/01/04 07:17:07;;;;;;;0.40;0.40;;;;;;;;;;6126911;23;20185;-93
2024/01/04 07:20:26;;;;;;;0.40;0.40;;;;;;;;;;6145653;23;20169;-92
2024/01/04 07:23:32;;;;;;;1.10;0.60;;;;;;;;;;6144451;23;20250;-92
2024/01/04 07:26:37;;;;;;;0.30;0.30;;;;;;;;;;6145792;23;20194;-93
2024/01/04 07:29:43;;;;;;;5.38;0.88;;;;;;;;;;6159913;23;20241;-91
2024/01/04 07:32:49;;;;;;;0.30;0.30;;;;;;;;;;6143975;23;20153;-91
2024/01/04 07:35:56;;;;;;;0.50;0.50;;;;;;;;;;6142895;23;20165;-91
2024/01/04 07:39:03;;;;;;;0.45;0.45;;;;;;;;;;6142907;23;20523;-92
2024/01/04 07:42:09;;;;;;;0.30;0.30;;;;;;;;;;6138240;23;20177;-91
2024/01/04 07:45:15;;;;;;;0.40;0.40;;;;;;;;;;6143602;23;20161;-93
2024/01/04 07:48:20;;;;;;;1.75;0.95;;;;;;;;;;6143960;23;20157;-92
2024/01/04 07:51:28;;;;;;;0.30;0.30;;;;;;;;;;6142531;23;20164;-92
2024/01/04 07:54:34;;;;;;;0.30;0.30;;;;;;;;;;6143131;23;20315;-91
2024/01/04 07:57:39;;;;;;;0.50;0.50;;;;;;;;;;6143310;23;20220;-93
2024/01/04 08:00:45;;;;;;;0.73;0.60;;;;;;;;;;6141851;23;20153;-91
2024/01/04 08:03:50;;;;;;;0.30;0.30;;;;;;;;;;6142353;23;20152;-91
2024/01/04 08:06:57;;;;;;;0.30;0.30;;;;;;;;;;6141917;23;20169;-93
2024/01/04 08:10:08;;;;;;;0.30;0.30;;;;;;;;;;6143905;23;20174;-95
2024/01/04 08:13:16;;;;;;;0.30;0.30;;;;;;;;;;6142039;23;20224;-91
2024/01/04 08:16:22;;;;;;;0.95;0.68;;;;;;;;;;6142749;23;20173;-94
2024/01/04 08:19:28;;;;;;;1.20;0.57;;;;;;;;;;6144406;23;20217;-93
2024/01/04 08:22:37;;;;;;;0.32;0.32;;;;;;;;;;6142753;23;20205;-92
2024/01/04 08:25:44;;;;;;;0.30;0.30;;;;;;;;;;6143776;23;20670;-91
2024/01/04 08:28:50;;;;;;;0.40;0.40;;;;;;;;;;6146281;23;20169;-91
2024/01/04 08:31:55;;;;;;;0.40;0.40;;;;;;;;;;6143271;23;20165;-92
2024/01/04 08:35:02;;;;;;;0.50;0.50;;;;;;;;;;6145185;23;20153;-94
2024/01/04 08:38:09;;;;;;;0.68;0.50;;;;;;;;;;6145709;23;20200;-92
2024/01/04 08:41:14;;;;;;;0.30;0.30;;;;;;;;;;6146230;23;20544;-91
2024/01/04 08:44:20;;;;;;;0.30;0.30;;;;;;;;;;6144440;23;20178;-93
2024/01/04 08:47:25;;;;;;;0.40;0.40;;;;;;;;;;6147222;23;20173;-92
2024/01/04 08:50:32;;;;;;;0.40;0.40;;;;;;;;;;6145795;23;20182;-92
2024/01/04 08:53:40;;;;;;;0.40;0.40;;;;;;;;;;6145558;23;20213;-94
2024/01/04 08:56:45;;;;;;;0.30;0.30;;;;;;;;;;6143093;23;20178;-94
2024/01/04 09:26:42;;;;;;;0.50;0.50;;;;;;;;;;6190335;23;20216;-92
2024/01/04 09:32:45;;;;;;;0.30;0.30;;;;;;;;;;6167928;23;20590;-90
2024/01/04 09:35:52;;;;;;;0.30;0.30;;;;;;;;;;6205573;23;20168;-93
2024/01/04 09:38:58;;;;;;;0.30;0.30;;;;;;;;;;6207101;23;20227;-92
2024/01/04 09:42:06;;;;;;;0.40;0.40;;;;;;;;;;6207049;22;20168;-93
2024/01/04 09:45:15;;;;;;;0.82;0.75;;;;;;;;;;6205787;23;20261;-91
2024/01/04 09:48:23;;;;;;;0.50;0.50;;;;;;;;;;6204439;23;20189;-91
2024/01/04 09:51:30;;;;;;;0.30;0.30;;;;;;;;;;6204037;23;20224;-94
2024/01/04 09:54:36;;;;;;;0.32;0.32;;;;;;;;;;6221482;22;20242;-93
2024/01/04 09:57:43;;;;;;;9.82;1.27;;;;;;;;;;6203812;23;20215;-92
2024/01/04 10:00:48;;;;;;;0.35;0.35;;;;;;;;;;6203118;22;20176;-92
2024/01/04 10:03:55;;;;;;;0.30;0.30;;;;;;;;;;6204501;22;20171;-94
2024/01/04 10:07:08;;;;;;;0.30;0.30;;;;;;;;;;6203388;23;20171;-94
2024/01/04 10:10:32;;;;;;;0.30;0.30;;;;;;;;;;6208139;23;20160;-93
2024/01/04 10:13:39;;;;;;;0.65;0.65;;;;;;;;;;6204770;23;20239;-93
2024/01/04 10:16:45;;;;;;;0.55;0.55;;;;;;;;;;6204697;23;20176;-93
2024/01/04 10:19:50;;;;;;;0.30;0.30;;;;;;;;;;6205064;23;20168;-93
2024/01/04 10:22:59;;;;;;;0.32;0.32;;;;;;;;;;6203280;23;20167;-92
2024/01/04 10:26:08;;;;;;;0.40;0.40;;;;;;;;;;6204999;23;20204;-93
2024/01/04 10:29:24;;;;;;;0.30;0.30;;;;;;;;;;6202424;23;20233;-92
2024/01/04 10:32:31;;;;;;;0.40;0.40;;;;;;;;;;6204933;23;20192;-91
2024/01/04 10:35:37;;;;;;;0.30;0.30;;;;;;;;;;6205439;23;20172;-92
2024/01/04 10:38:44;;;;;;;0.30;0.30;;;;;;;;;;6203018;23;20191;-91
2024/01/04 10:42:01;;;;;;;0.30;0.30;;;;;;;;;;6203398;23;20180;-92
2024/01/04 10:45:12;;;;;;;0.47;0.47;;;;;;;;;;6202813;22;20237;-92
2024/01/04 10:48:18;;;;;;;0.40;0.40;;;;;;;;;;6203757;23;20167;-91
2024/01/04 10:51:24;;;;;;;0.30;0.30;;;;;;;;;;6203114;23;20168;-92
2024/01/04 10:54:32;;;;;;;0.30;0.30;;;;;;;;;;6201239;23;20211;-93
2024/01/04 10:57:39;;;;;;;0.90;0.65;;;;;;;;;;6201065;22;20195;-92
2024/01/04 11:00:45;;;;;;;0.30;0.30;;;;;;;;;;6201445;22;20615;-92
2024/01/04 11:03:50;;;;;;;0.40;0.40;;;;;;;;;;6204692;23;20215;-93
2024/01/04 13:16:10;;;;;;;6.35;1.40;;;;;;;;;;6167874;23;20212;-94
2024/01/04 15:46:18;;;;;;;5.78;1.48;;;;;;;;;;5118414;27;20568;-93
2024/01/04 15:49:24;;;;;;;3.90;1.30;;;;;;;;;;5087332;28;20238;-94
2024/01/04 15:55:49;;;;;;;8.13;1.30;;;;;;;;;;5085297;28;20313;-93
2024/01/04 15:58:54;;;;;;;6.82;1.30;;;;;;;;;;5083400;28;20186;-93
2024/01/04 16:02:02;;;;;;;4.53;1.35;;;;;;;;;;5085524;28;20205;-93
2024/01/04 16:05:10;;;;;;;4.60;1.45;;;;;;;;;;5078615;28;20252;-93
2024/01/04 16:08:14;;;;;;;8.88;1.85;;;;;;;;;;5084220;28;20265;-93
2024/01/04 16:11:21;;;;;;;6.63;1.83;;;;;;;;;;5085048;28;20274;-93
2024/01/04 16:14:26;;;;;;;0.55;0.50;;;;;;;;;;5085706;28;20205;-93
2024/01/04 16:17:34;;;;;;;0.30;0.30;;;;;;;;;;5085912;28;20186;-93
2024/01/04 16:20:39;;;;;;;0.70;0.70;;;;;;;;;;5086028;28;20195;-93
2024/01/04 16:23:46;;;;;;;0.30;0.30;;;;;;;;;;5086775;28;20183;-93
2024/01/04 16:26:53;;;;;;;0.50;0.50;;;;;;;;;;5084965;28;20198;-94
2024/01/04 16:29:59;;;;;;;0.60;0.60;;;;;;;;;;5077449;28;20257;-92
2024/01/04 16:33:11;;;;;;;0.33;0.33;;;;;;;;;;5090553;28;20187;-92
2024/01/04 16:36:18;;;;;;;0.50;0.50;;;;;;;;;;5067644;28;20183;-94
2024/01/04 16:39:23;;;;;;;0.93;0.87;;;;;;;;;;5084144;28;20241;-92
2024/01/04 16:42:31;;;;;;;2.03;1.30;;;;;;;;;;5084904;28;20202;-90
2024/01/04 16:45:37;;;;;;;0.87;0.87;;;;;;;;;;5077736;28;20217;-92
2024/01/04 16:48:46;;;;;;;4.53;1.63;;;;;;;;;;5085663;28;20171;-91
2024/01/04 16:51:52;;;;;;;0.83;0.83;;;;;;;;;;5066970;28;20182;-93
2024/01/04 16:54:57;;;;;;;0.50;0.50;;;;;;;;;;5064658;28;20198;-92
2024/01/04 16:58:07;;;;;;;0.40;0.40;;;;;;;;;;5066028;28;20195;-92
2024/01/04 17:01:13;;;;;;;1.03;0.67;;;;;;;;;;5071706;28;20280;-90
2024/01/04 17:04:20;;;;;;;0.40;0.40;;;;;;;;;;5069425;28;20306;-92
2024/01/04 17:07:25;;;;;;;1.43;0.70;;;;;;;;;;5062523;28;20183;-94
2024/01/04 17:10:32;;;;;;;0.80;0.63;;;;;;;;;;5072827;28;20199;-91
2024/01/04 17:13:38;;;;;;;0.37;0.37;;;;;;;;;;5069593;28;20303;-92
2024/01/04 17:16:43;;;;;;;1.07;0.70;;;;;;;;;;5056460;28;20191;-92
2024/01/04 17:19:50;;;;;;;0.87;0.67;;;;;;;;;;5050722;28;20180;-92
2024/01/04 17:23:04;;;;;;;0.40;0.40;;;;;;;;;;5058930;28;20183;-93
2024/01/04 17:26:14;;;;;;;0.83;0.80;;;;;;;;;;5075243;28;20215;-92
2024/01/04 17:29:20;;;;;;;0.63;0.63;;;;;;;;;;5051222;28;20244;-93
2024/01/04 17:32:25;;;;;;;0.50;0.50;;;;;;;;;;5051850;28;20184;-93
2024/01/04 17:35:32;;;;;;;0.80;0.80;;;;;;;;;;5062515;28;20206;-90
2024/01/04 17:38:39;;;;;;;0.60;0.60;;;;;;;;;;5069677;28;20202;-93
2024/01/04 17:41:48;;;;;;;0.40;0.40;;;;;;;;;;5070263;28;20677;-91
2024/01/04 17:44:54;;;;;;;0.30;0.30;;;;;;;;;;5068930;28;20234;-90
2024/01/04 17:47:59;;;;;;;0.50;0.50;;;;;;;;;;5071194;28;20191;-94
2024/01/04 17:51:08;;;;;;;2.00;1.23;;;;;;;;;;5072124;28;20218;-94
2024/01/04 17:54:14;;;;;;;2.73;0.80;;;;;;;;;;5070361;28;20170;-92
2024/01/04 17:57:21;;;;;;;0.40;0.40;;;;;;;;;;5070986;28;20229;-95
2024/01/04 18:00:28;;;;;;;1.70;1.60;;;;;;;;;;5070496;28;20222;-93
2024/01/04 18:03:34;;;;;;;0.90;0.90;;;;;;;;;;5071772;28;20183;-94
2024/01/04 18:41:53;;;;;;;0.73;0.73;;;;;;;;;;5421035;23;20240;-92
2024/01/04 18:44:58;;;;;;;0.40;0.40;;;;;;;;;;5000565;28;20605;-93
2024/01/04 18:48:04;;;;;;;2.43;1.00;;;;;;;;;;5009697;28;20228;-94
2024/01/04 18:51:10;;;;;;;3.23;1.57;;;;;;;;;;5008907;28;20205;-91
2024/01/04 18:54:15;;;;;;;7.73;1.33;;;;;;;;;;4990787;28;20189;-93
2024/01/04 18:57:23;;;;;;;0.50;0.50;;;;;;;;;;4990247;28;20265;-93
2024/01/04 19:00:28;;;;;;;1.33;1.10;;;;;;;;;;4991112;28;20259;-91
2024/01/04 19:03:34;;;;;;;1.30;1.20;;;;;;;;;;4991364;28;20222;-92
2024/01/04 19:06:40;;;;;;;8.23;1.20;;;;;;;;;;4993407;28;20201;-94
2024/01/04 19:09:48;;;;;;;0.40;0.40;;;;;;;;;;4992103;28;20189;-92
2024/01/04 19:13:01;;;;;;;0.87;0.87;;;;;;;;;;4992165;28;20249;-92
2024/01/04 19:16:09;;;;;;;0.40;0.40;;;;;;;;;;4992636;28;20202;-92
2024/01/04 19:19:15;;;;;;;0.40;0.40;;;;;;;;;;4993130;28;20181;-93
2024/01/04 19:22:27;;;;;;;0.73;0.73;;;;;;;;;;5001919;28;20684;-94
2024/01/04 19:25:33;;;;;;;0.57;0.57;;;;;;;;;;5005781;28;20310;-93
2024/01/04 19:28:56;;;;;;;0.50;0.50;;;;;;;;;;5013386;28;20197;-92
2024/01/04 19:32:06;;;;;;;1.13;1.10;;;;;;;;;;5010374;28;20193;-91
2024/01/04 19:35:12;;;;;;;0.50;0.50;;;;;;;;;;5009964;28;20188;-93
2024/01/04 19:38:19;;;;;;;2.93;1.20;;;;;;;;;;5006748;28;20660;-94
2024/01/04 19:41:24;;;;;;;0.70;0.70;;;;;;;;;;5009167;28;20208;-93
2024/01/04 19:44:30;;;;;;;0.40;0.40;;;;;;;;;;5008593;28;20196;-92
2024/01/04 19:47:37;;;;;;;0.40;0.40;;;;;;;;;;5009115;28;20245;-91
2024/01/04 19:50:45;;;;;;;0.70;0.70;;;;;;;;;;5009227;28;20666;-93
2024/01/04 19:53:54;;;;;;;1.67;1.33;;;;;;;;;;5023976;28;20281;-93
2024/01/04 19:56:59;;;;;;;2.57;2.03;;;;;;;;;;5007971;28;20176;-90
2024/01/04 20:00:05;;;;;;;1.53;0.93;;;;;;;;;;5008699;28;20201;-93
2024/01/04 20:03:15;;;;;;;13.43;3.07;;;;;;;;;;5007958;28;20259;-93
2024/01/04 20:06:20;;;;;;;4.90;1.20;;;;;;;;;;5006555;28;20221;-94
2024/01/04 20:09:26;;;;;;;7.63;4.37;;;;;;;;;;5022492;28;20185;-94
2024/01/04 20:12:31;;;;;;;2.63;1.93;;;;;;;;;;5028606;28;20223;-92
2024/01/04 20:15:39;;;;;;;1.00;0.73;;;;;;;;;;5019070;28;20321;-92
2024/01/04 20:18:47;;;;;;;0.67;0.67;;;;;;;;;;5026314;28;20184;-92
2024/01/04 20:21:55;;;;;;;2.10;1.33;;;;;;;;;;5027492;28;20189;-93
2024/01/04 20:25:00;;;;;;;0.87;0.87;;;;;;;;;;5027342;28;20228;-94
2024/01/04 20:28:05;;;;;;;1.27;0.90;;;;;;;;;;5026476;28;20568;-93
2024/01/04 20:31:11;;;;;;;0.83;0.83;;;;;;;;;;5010572;28;20232;-91
2024/01/04 20:34:20;;;;;;;1.07;0.77;;;;;;;;;;5011440;28;20201;-92
2024/01/04 20:37:26;;;;;;;2.40;0.93;;;;;;;;;;4995673;28;20189;-93
2024/01/04 20:40:31;;;;;;;1.13;1.03;;;;;;;;;;4991233;28;20254;-95
2024/01/04 20:43:36;;;;;;;2.10;1.00;;;;;;;;;;4990389;28;20198;-94
2024/01/04 20:46:42;;;;;;;1.20;1.07;;;;;;;;;;4990453;28;20216;-94
2024/01/04 20:49:52;;;;;;;0.70;0.70;;;;;;;;;;4993842;28;20229;-94
2024/01/04 20:52:59;;;;;;;3.40;2.17;;;;;;;;;;5009655;28;20173;-92
2024/01/04 20:56:07;;;;;;;0.83;0.83;;;;;;;;;;4992410;28;20206;-93
2024/01/04 20:59:13;;;;;;;1.30;0.83;;;;;;;;;;4998134;28;20205;-91
2024/01/04 21:02:19;;;;;;;1.37;1.27;;;;;;;;;;5009255;28;20335;-94
2024/01/04 21:05:27;;;;;;;1.10;1.10;;;;;;;;;;4990073;28;20205;-93
2024/01/04 21:08:33;;;;;;;2.43;1.47;;;;;;;;;;4992069;28;20189;-94
2024/01/04 21:11:38;;;;;;;1.43;0.80;;;;;;;;;;4993085;28;20596;-92
2024/01/04 21:14:45;;;;;;;2.97;1.33;;;;;;;;;;5009847;28;20205;-94
2024/01/04 21:17:50;;;;;;;0.87;0.87;;;;;;;;;;5012450;28;20324;-95
2024/01/04 21:20:58;;;;;;;0.70;0.70;;;;;;;;;;5010702;28;20185;-93
2024/01/04 22:52:06;;;;;;;0.60;0.60;;;;;;;;;;5726196;23;20246;-91
2024/01/04 22:55:11;;;;;;;0.53;0.53;;;;;;;;;;4987847;28;20194;-92
2024/01/04 22:58:16;;;;;;;0.70;0.70;;;;;;;;;;4988304;28;20213;-94
2024/01/04 23:01:23;;;;;;;0.50;0.50;;;;;;;;;;4989761;28;20186;-93
2024/01/04 23:04:29;;;;;;;1.80;1.03;;;;;;;;;;4990683;28;20379;-93
2024/01/04 23:10:34;;;;;;;0.70;0.70;;;;;;;;;;5223973;23;20238;-93
2024/01/04 23:13:40;;;;;;;0.53;0.53;;;;;;;;;;4979475;28;20198;-92
2024/01/04 23:20:25;;;;;;;0.30;0.30;;;;;;;;;;4971918;28;20890;-91
2024/01/04 23:23:31;;;;;;;0.40;0.40;;;;;;;;;;4973970;28;20267;-93
2024/01/04 23:26:42;;;;;;;0.33;0.33;;;;;;;;;;4968588;28;20218;-92
2024/01/04 23:29:59;;;;;;;0.70;0.70;;;;;;;;;;5080668;23;20246;-93
2024/01/04 23:33:05;;;;;;;0.50;0.50;;;;;;;;;;4955596;28;20192;-93
2024/01/04 23:36:11;;;;;;;0.37;0.37;;;;;;;;;;4963386;23;20254;-93
2024/01/04 23:39:17;;;;;;;0.97;0.57;;;;;;;;;;4952030;28;20174;-90
2024/01/04 23:42:24;;;;;;;0.60;0.60;;;;;;;;;;4961915;28;20240;-92
2024/01/04 23:45:29;;;;;;;0.40;0.40;;;;;;;;;;4965902;28;20190;-92
2024/01/04 23:48:34;;;;;;;0.60;0.60;;;;;;;;;;4963697;28;20255;-93
2024/01/04 23:51:40;;;;;;;0.60;0.60;;;;;;;;;;5116252;23;20233;-91
2024/01/04 23:54:46;;;;;;;1.63;0.53;;;;;;;;;;4984932;28;20175;-90
2024/01/04 23:57:53;;;;;;;0.70;0.70;;;;;;;;;;4987354;28;20178;-92
